createdAt,value
2018-02-16T00:00:37.689Z,25.00
2018-02-16T00:01:37.626Z,24.50
2018-02-16T00:02:37.530Z,25.10
2018-02-16T00:03:37.442Z,24.40
2018-02-16T00:04:37.356Z,24.30
2018-02-16T00:05:37.280Z,24.40
2018-02-16T00:06:37.190Z,25.00
2018-02-16T00:07:37.115Z,24.40
2018-02-16T00:08:37.025Z,24.90
2018-02-16T00:09:36.943Z,25.60
2018-02-16T00:10:36.855Z,25.80
2018-02-16T00:11:36.778Z,24.10
2018-02-16T00:12:36.694Z,24.40
2018-02-16T00:13:36.618Z,25.40
2018-02-16T00:14:36.528Z,25.20
2018-02-16T00:15:36.452Z,24.50
2018-02-16T00:16:36.350Z,26.10
2018-02-16T00:17:36.279Z,24.20
2018-02-16T00:18:36.196Z,25.10
2018-02-16T00:19:36.112Z,24.80
2018-02-16T00:20:36.019Z,24.30
2018-02-16T00:21:35.947Z,25.10
2018-02-16T00:22:35.857Z,25.10
2018-02-16T00:23:35.782Z,25.90
2018-02-16T00:24:35.696Z,25.30
2018-02-16T00:25:35.615Z,26.10
2018-02-16T00:26:35.522Z,26.00
2018-02-16T00:27:35.447Z,25.80
2018-02-16T00:28:35.370Z,26.10
2018-02-16T00:29:35.274Z,25.70
2018-02-16T00:30:35.189Z,25.50
2018-02-16T00:31:35.121Z,26.50
2018-02-16T00:32:35.019Z,25.40
2018-02-16T00:33:34.941Z,26.60
2018-02-16T00:34:34.870Z,26.70
2018-02-16T00:35:34.785Z,26.90
2018-02-16T00:36:34.692Z,26.80
2018-02-16T00:37:34.616Z,26.40
2018-02-16T00:38:34.535Z,27.20
2018-02-16T00:39:34.446Z,26.10
2018-02-16T00:40:34.357Z,27.00
2018-02-16T00:41:34.295Z,26.10
2018-02-16T00:42:34.190Z,27.00
2018-02-16T00:43:34.109Z,26.10
2018-02-16T00:44:34.032Z,26.30
2018-02-16T00:45:33.944Z,26.10
2018-02-16T00:46:33.864Z,25.40
2018-02-16T00:47:33.779Z,25.80
2018-02-16T00:48:33.698Z,26.40
2018-02-16T00:49:33.615Z,27.10
2018-02-16T00:50:33.529Z,27.50
2018-02-16T00:51:33.451Z,27.60
2018-02-16T00:52:33.366Z,26.90
2018-02-16T00:53:33.285Z,27.50
2018-02-16T00:54:33.198Z,27.90
2018-02-16T00:55:33.117Z,27.80
2018-02-16T00:56:33.036Z,27.10
2018-02-16T00:57:32.949Z,26.90
2018-02-16T00:58:32.868Z,27.60
2018-02-16T00:59:32.786Z,28.40
2018-02-16T01:00:32.696Z,28.70
2018-02-16T01:01:32.616Z,28.40
2018-02-16T01:02:32.538Z,28.40
2018-02-16T01:03:32.447Z,28.30
2018-02-16T01:04:32.378Z,27.40
2018-02-16T01:05:32.286Z,28.10
2018-02-16T01:06:32.199Z,28.40
2018-02-16T01:07:32.123Z,28.20
2018-02-16T01:08:32.033Z,28.90
2018-02-16T01:09:31.946Z,29.20
2018-02-16T01:10:31.875Z,28.90
2018-02-16T01:11:31.785Z,27.40
2018-02-16T01:12:31.702Z,27.60
2018-02-16T01:13:31.622Z,28.60
2018-02-16T01:14:31.532Z,28.40
2018-02-16T01:15:31.475Z,28.10
2018-02-16T01:16:31.372Z,28.90
2018-02-16T01:17:31.284Z,28.60
2018-02-16T01:18:31.214Z,28.00
2018-02-16T01:19:31.118Z,29.20
2018-02-16T01:20:31.044Z,28.80
2018-02-16T01:21:30.978Z,28.70
2018-02-16T01:22:30.875Z,29.40
2018-02-16T01:23:30.798Z,28.40
2018-02-16T01:24:30.707Z,29.60
2018-02-16T01:25:30.625Z,28.70
2018-02-16T01:26:30.555Z,29.40
2018-02-16T01:27:30.471Z,29.20
2018-02-16T01:28:30.378Z,29.00
2018-02-16T01:29:30.301Z,29.40
2018-02-16T01:30:30.222Z,28.50
2018-02-16T01:31:30.137Z,29.70
2018-02-16T01:32:30.050Z,29.30
2018-02-16T01:33:29.970Z,30.20
2018-02-16T01:34:29.876Z,31.00
2018-02-16T01:35:29.802Z,30.90
2018-02-16T01:36:29.715Z,30.90
2018-02-16T01:37:29.641Z,31.40
2018-02-16T01:38:29.548Z,31.90
2018-02-16T01:39:29.475Z,32.30
2018-02-16T01:40:29.384Z,33.50
2018-02-16T01:41:29.300Z,34.00
2018-02-16T01:42:29.232Z,33.20
2018-02-16T01:43:29.152Z,32.60
2018-02-16T01:44:29.055Z,32.70
2018-02-16T01:45:28.981Z,34.60
2018-02-16T01:46:28.889Z,33.30
2018-02-16T01:47:28.801Z,33.80
2018-02-16T01:48:28.728Z,34.30
2018-02-16T01:49:28.636Z,33.60
2018-02-16T01:50:28.551Z,34.40
2018-02-16T01:51:28.475Z,33.20
2018-02-16T01:52:28.391Z,31.80
2018-02-16T01:53:28.305Z,32.00
2018-02-16T01:54:28.224Z,32.30
2018-02-16T01:55:28.146Z,32.20
2018-02-16T01:56:28.050Z,31.80
2018-02-16T01:57:27.979Z,31.70
2018-02-16T01:58:27.904Z,31.40
2018-02-16T01:59:27.802Z,31.10
2018-02-16T02:00:27.733Z,29.90
2018-02-16T02:01:27.655Z,29.90
2018-02-16T02:02:27.550Z,31.40
2018-02-16T02:03:27.480Z,30.90
2018-02-16T02:04:27.388Z,31.60
2018-02-16T02:05:27.304Z,29.90
2018-02-16T02:06:27.230Z,28.40
2018-02-16T02:07:27.152Z,29.00
2018-02-16T02:08:27.053Z,29.10
2018-02-16T02:09:26.983Z,29.10
2018-02-16T02:10:26.905Z,30.00
2018-02-16T02:11:26.806Z,28.70
2018-02-16T02:12:26.729Z,28.70
2018-02-16T02:13:26.644Z,29.80
2018-02-16T02:14:26.559Z,29.40
2018-02-16T02:15:26.479Z,30.10
2018-02-16T02:16:26.394Z,29.70
2018-02-16T02:17:26.307Z,29.70
2018-02-16T02:18:26.231Z,29.00
2018-02-16T02:19:26.154Z,28.20
2018-02-16T02:20:26.052Z,29.30
2018-02-16T02:21:25.981Z,30.30
2018-02-16T02:22:25.896Z,29.10
2018-02-16T02:23:25.816Z,29.50
2018-02-16T02:24:25.732Z,28.90
2018-02-16T02:25:25.645Z,29.90
2018-02-16T02:26:25.578Z,29.80
2018-02-16T02:27:25.484Z,28.90
2018-02-16T02:28:25.392Z,28.80
2018-02-16T02:29:25.317Z,28.90
2018-02-16T02:30:25.233Z,28.90
2018-02-16T02:31:25.140Z,28.80
2018-02-16T02:32:25.073Z,29.40
2018-02-16T02:33:24.988Z,28.80
2018-02-16T02:34:24.891Z,29.90
2018-02-16T02:35:24.821Z,28.90
2018-02-16T02:36:24.733Z,29.20
2018-02-16T02:37:24.643Z,29.60
2018-02-16T02:38:24.576Z,29.30
2018-02-16T02:39:24.478Z,30.00
2018-02-16T02:40:24.394Z,28.80
2018-02-16T02:41:24.332Z,29.50
2018-02-16T02:42:24.229Z,30.40
2018-02-16T02:43:24.155Z,29.20
2018-02-16T02:44:24.070Z,30.00
2018-02-16T02:45:23.982Z,29.00
2018-02-16T02:46:23.903Z,28.90
2018-02-16T02:47:23.836Z,29.30
2018-02-16T02:48:23.734Z,29.90
2018-02-16T02:49:23.657Z,29.00
2018-02-16T02:50:23.578Z,28.80
2018-02-16T02:51:23.478Z,29.50
2018-02-16T02:52:23.408Z,29.30
2018-02-16T02:53:23.332Z,29.40
2018-02-16T02:54:23.230Z,28.50
2018-02-16T02:55:23.163Z,30.60
2018-02-16T02:56:23.085Z,29.50
2018-02-16T02:57:22.984Z,29.80
2018-02-16T02:58:22.911Z,29.00
2018-02-16T02:59:22.823Z,30.10
2018-02-16T03:00:22.740Z,30.70
2018-02-16T03:01:22.665Z,30.60
2018-02-16T03:02:22.573Z,29.60
2018-02-16T03:03:22.487Z,29.30
2018-02-16T03:04:22.406Z,29.20
2018-02-16T03:05:22.326Z,29.00
2018-02-16T03:06:22.240Z,29.20
2018-02-16T03:07:22.157Z,29.50
2018-02-16T03:08:22.079Z,28.60
2018-02-16T03:09:21.999Z,29.90
2018-02-16T03:10:21.907Z,29.70
2018-02-16T03:11:21.829Z,28.90
2018-02-16T03:12:21.746Z,28.90
2018-02-16T03:13:21.661Z,29.10
2018-02-16T03:14:21.577Z,30.30
2018-02-16T03:15:21.506Z,29.70
2018-02-16T03:16:21.415Z,29.70
2018-02-16T03:17:21.341Z,28.70
2018-02-16T03:18:21.251Z,30.10
2018-02-16T03:19:21.167Z,29.50
2018-02-16T03:20:21.084Z,29.50
2018-02-16T03:21:21.013Z,29.20
2018-02-16T03:22:20.915Z,29.00
2018-02-16T03:23:20.831Z,30.60
2018-02-16T03:24:20.749Z,30.20
2018-02-16T03:25:20.661Z,29.80
2018-02-16T03:26:20.582Z,30.50
2018-02-16T03:27:20.502Z,29.60
2018-02-16T03:28:20.410Z,30.00
2018-02-16T03:29:20.335Z,30.10
2018-02-16T03:30:20.256Z,30.50
2018-02-16T03:31:20.163Z,31.10
2018-02-16T03:32:20.090Z,29.70
2018-02-16T03:33:20.007Z,31.40
2018-02-16T03:34:19.923Z,30.20
2018-02-16T03:35:19.837Z,30.00
2018-02-16T03:36:19.753Z,31.70
2018-02-16T03:37:19.673Z,29.90
2018-02-16T03:38:19.589Z,32.10
2018-02-16T03:39:19.510Z,31.30
2018-02-16T03:40:19.441Z,31.50
2018-02-16T03:41:19.340Z,30.00
2018-02-16T03:42:19.250Z,31.20
2018-02-16T03:43:19.180Z,31.00
2018-02-16T03:44:19.084Z,32.10
2018-02-16T03:45:19.016Z,32.40
2018-02-16T03:46:18.928Z,32.10
2018-02-16T03:47:18.837Z,33.50
2018-02-16T03:48:18.768Z,34.30
2018-02-16T03:49:18.696Z,33.20
2018-02-16T03:50:18.587Z,33.30
2018-02-16T03:51:18.516Z,33.20
2018-02-16T03:52:18.425Z,33.90
2018-02-16T03:53:18.336Z,35.20
2018-02-16T03:54:18.270Z,35.20
2018-02-16T03:55:18.191Z,32.80
2018-02-16T03:56:18.095Z,33.00
2018-02-16T03:57:18.019Z,35.80
2018-02-16T03:58:17.928Z,34.90
2018-02-16T03:59:17.870Z,34.20
2018-02-16T04:00:17.766Z,36.10
2018-02-16T04:01:17.693Z,36.40
2018-02-16T04:02:17.614Z,35.40
2018-02-16T04:03:17.514Z,36.20
2018-02-16T04:04:17.435Z,35.30
2018-02-16T04:05:17.365Z,34.70
2018-02-16T04:06:17.261Z,36.00
2018-02-16T04:07:17.192Z,36.10
2018-02-16T04:08:17.103Z,38.30
2018-02-16T04:09:17.014Z,34.10
2018-02-16T04:10:16.931Z,37.50
2018-02-16T04:11:16.854Z,39.50
2018-02-16T04:12:16.766Z,38.60
2018-02-16T04:13:16.679Z,38.30
2018-02-16T04:14:16.608Z,39.10
2018-02-16T04:15:16.517Z,38.80
2018-02-16T04:16:16.430Z,39.10
2018-02-16T04:17:16.365Z,39.30
2018-02-16T04:18:16.269Z,40.40
2018-02-16T04:19:16.192Z,40.60
2018-02-16T04:20:16.111Z,40.40
2018-02-16T04:21:16.019Z,41.70
2018-02-16T04:22:15.943Z,41.30
2018-02-16T04:23:15.857Z,40.20
2018-02-16T04:24:15.763Z,41.00
2018-02-16T04:25:15.688Z,39.90
2018-02-16T04:26:15.606Z,41.30
2018-02-16T04:27:15.517Z,41.70
2018-02-16T04:28:15.445Z,41.20
2018-02-16T04:29:15.369Z,41.90
2018-02-16T04:30:15.275Z,42.90
2018-02-16T04:31:15.196Z,43.80
2018-02-16T04:32:15.107Z,44.30
2018-02-16T04:33:15.014Z,42.90
2018-02-16T04:34:14.946Z,43.00
2018-02-16T04:35:14.858Z,43.30
2018-02-16T04:36:14.767Z,45.00
2018-02-16T04:37:14.696Z,44.40
2018-02-16T04:38:14.607Z,45.50
2018-02-16T04:39:14.522Z,47.00
2018-02-16T04:40:14.441Z,44.20
2018-02-16T04:41:14.357Z,43.60
2018-02-16T04:42:14.275Z,43.10
2018-02-16T04:43:14.191Z,46.90
2018-02-16T04:44:14.108Z,44.20
2018-02-16T04:45:14.025Z,45.50
2018-02-16T04:46:13.940Z,45.50
2018-02-16T04:47:13.861Z,43.70
2018-02-16T04:48:13.771Z,46.40
2018-02-16T04:49:13.682Z,45.90
2018-02-16T04:50:13.649Z,47.50
2018-02-16T04:51:13.520Z,44.80
2018-02-16T04:52:13.448Z,45.20
2018-02-16T04:53:13.342Z,45.50
2018-02-16T04:54:13.276Z,43.50
2018-02-16T04:55:13.182Z,46.40
2018-02-16T04:56:13.102Z,46.50
2018-02-16T04:57:13.024Z,45.50
2018-02-16T04:58:12.947Z,46.30
2018-02-16T04:59:12.847Z,46.20
2018-02-16T05:00:13.072Z,47.50
2018-02-16T05:01:12.692Z,49.40
2018-02-16T05:02:12.597Z,47.90
2018-02-16T05:03:12.521Z,47.10
2018-02-16T05:04:12.448Z,49.90
2018-02-16T05:05:12.350Z,50.10
2018-02-16T05:06:12.268Z,49.60
2018-02-16T05:07:12.200Z,49.40
2018-02-16T05:08:12.098Z,48.10
2018-02-16T05:09:12.024Z,47.60
2018-02-16T05:10:12.198Z,49.10
2018-02-16T05:11:11.849Z,47.00
2018-02-16T05:12:11.761Z,49.80
2018-02-16T05:13:11.697Z,50.40
2018-02-16T05:14:11.593Z,50.80
2018-02-16T05:15:11.516Z,50.50
2018-02-16T05:16:11.449Z,50.50
2018-02-16T05:17:11.346Z,50.30
2018-02-16T05:18:11.267Z,51.60
2018-02-16T05:19:11.188Z,49.10
2018-02-16T05:20:11.098Z,50.00
2018-02-16T05:21:11.012Z,50.20
2018-02-16T05:22:10.923Z,50.30
2018-02-16T05:23:10.851Z,50.70
2018-02-16T05:24:10.757Z,51.10
2018-02-16T05:25:10.670Z,52.10
2018-02-16T05:26:10.604Z,52.60
2018-02-16T05:27:10.511Z,52.50
2018-02-16T05:28:10.425Z,51.30
2018-02-16T05:29:10.350Z,50.80
2018-02-16T05:30:10.272Z,51.60
2018-02-16T05:31:10.182Z,52.70
2018-02-16T05:32:10.083Z,51.80
2018-02-16T05:33:10.008Z,51.70
2018-02-16T05:34:09.929Z,52.90
2018-02-16T05:35:09.848Z,50.10
2018-02-16T05:36:09.776Z,51.20
2018-02-16T05:37:09.676Z,51.50
2018-02-16T05:38:09.585Z,51.40
2018-02-16T05:39:09.520Z,52.60
2018-02-16T05:40:09.425Z,51.10
2018-02-16T05:41:09.336Z,51.40
2018-02-16T05:42:09.254Z,50.80
2018-02-16T05:43:09.171Z,52.00
2018-02-16T05:44:09.089Z,51.60
2018-02-16T05:45:08.999Z,49.50
2018-02-16T05:46:08.922Z,49.20
2018-02-16T05:47:08.845Z,49.40
2018-02-16T05:48:08.750Z,49.00
2018-02-16T05:49:08.678Z,48.20
2018-02-16T05:50:08.593Z,50.40
2018-02-16T05:51:08.503Z,48.30
2018-02-16T05:52:08.414Z,49.60
2018-02-16T05:53:08.344Z,49.30
2018-02-16T05:54:08.256Z,48.90
2018-02-16T05:55:08.167Z,49.40
2018-02-16T05:56:08.078Z,49.00
2018-02-16T05:57:07.999Z,47.40
2018-02-16T05:58:07.930Z,47.10
2018-02-16T05:59:07.824Z,47.20
2018-02-16T06:00:07.757Z,47.10
2018-02-16T06:01:07.670Z,45.20
2018-02-16T06:02:07.572Z,46.40
2018-02-16T06:03:07.507Z,47.20
2018-02-16T06:04:07.413Z,43.80
2018-02-16T06:05:07.328Z,45.40
2018-02-16T06:06:07.256Z,45.30
2018-02-16T06:07:07.166Z,45.00
2018-02-16T06:08:07.084Z,44.70
2018-02-16T06:09:07.004Z,45.30
2018-02-16T06:10:06.918Z,43.20
2018-02-16T06:11:06.829Z,44.10
2018-02-16T06:12:06.749Z,43.20
2018-02-16T06:13:06.655Z,44.20
2018-02-16T06:14:06.579Z,44.10
2018-02-16T06:15:06.494Z,42.00
2018-02-16T06:16:06.421Z,42.60
2018-02-16T06:17:06.332Z,43.70
2018-02-16T06:18:06.242Z,43.40
2018-02-16T06:19:06.158Z,43.00
2018-02-16T06:20:06.081Z,42.50
2018-02-16T06:21:05.989Z,41.50
2018-02-16T06:22:05.904Z,41.70
2018-02-16T06:23:05.815Z,41.40
2018-02-16T06:24:05.757Z,40.80
2018-02-16T06:25:05.657Z,42.10
2018-02-16T06:26:05.569Z,43.20
2018-02-16T06:27:05.508Z,41.20
2018-02-16T06:28:05.408Z,41.40
2018-02-16T06:29:05.332Z,42.50
2018-02-16T06:30:05.234Z,40.20
2018-02-16T06:31:05.197Z,41.00
2018-02-16T06:32:05.068Z,40.70
2018-02-16T06:33:04.987Z,40.90
2018-02-16T06:34:04.901Z,39.70
2018-02-16T06:35:04.833Z,39.20
2018-02-16T06:36:04.730Z,39.80
2018-02-16T06:37:04.672Z,39.00
2018-02-16T06:38:04.571Z,39.10
2018-02-16T06:39:04.477Z,39.20
2018-02-16T06:40:04.410Z,38.80
2018-02-16T06:41:04.321Z,40.00
2018-02-16T06:42:04.229Z,39.10
2018-02-16T06:43:04.145Z,37.70
2018-02-16T06:44:04.057Z,37.90
2018-02-16T06:45:03.977Z,39.10
2018-02-16T06:46:03.906Z,36.90
2018-02-16T06:47:03.808Z,37.50
2018-02-16T06:48:03.735Z,36.50
2018-02-16T06:49:03.650Z,36.80
2018-02-16T06:50:03.556Z,36.20
2018-02-16T06:51:03.488Z,35.70
2018-02-16T06:52:03.391Z,35.80
2018-02-16T06:53:03.309Z,34.90
2018-02-16T06:54:03.236Z,35.10
2018-02-16T06:55:03.145Z,33.40
2018-02-16T06:56:03.064Z,34.70
2018-02-16T06:57:02.985Z,34.00
2018-02-16T06:58:02.900Z,33.90
2018-02-16T06:59:02.807Z,31.50
2018-02-16T07:00:02.750Z,31.20
2018-02-16T07:01:02.637Z,29.30
2018-02-16T07:02:02.556Z,30.20
2018-02-16T07:03:02.474Z,30.60
2018-02-16T07:04:02.379Z,29.90
2018-02-16T07:05:02.304Z,30.00
2018-02-16T07:06:02.234Z,28.40
2018-02-16T07:07:02.133Z,27.50
2018-02-16T07:08:02.060Z,28.70
2018-02-16T07:09:01.988Z,29.00
2018-02-16T07:10:01.883Z,28.20
2018-02-16T07:11:01.814Z,29.00
2018-02-16T07:12:01.732Z,27.60
2018-02-16T07:13:01.631Z,27.20
2018-02-16T07:14:01.552Z,26.30
2018-02-16T07:15:01.482Z,26.50
2018-02-16T07:16:01.385Z,27.20
2018-02-16T07:17:01.305Z,25.90
2018-02-16T07:18:01.219Z,24.80
2018-02-16T07:19:01.139Z,24.90
2018-02-16T07:20:01.059Z,25.20
2018-02-16T07:21:00.974Z,23.50
2018-02-16T07:22:00.888Z,23.00
2018-02-16T07:23:00.813Z,23.50
2018-02-16T07:24:00.712Z,23.60
2018-02-16T07:25:00.642Z,22.30
2018-02-16T07:26:00.549Z,23.10
2018-02-16T07:27:00.480Z,22.50
2018-02-16T07:28:00.383Z,21.10
2018-02-16T07:29:00.312Z,20.80
2018-02-16T07:30:00.216Z,20.30
2018-02-16T07:31:00.135Z,20.20
2018-02-16T07:32:00.053Z,20.50
2018-02-16T07:32:59.965Z,19.80
2018-02-16T07:33:59.887Z,20.60
2018-02-16T07:34:59.805Z,19.60
2018-02-16T07:35:59.713Z,19.60
2018-02-16T07:36:59.633Z,19.90
2018-02-16T07:37:59.562Z,19.00
2018-02-16T07:38:59.475Z,18.60
2018-02-16T07:39:59.390Z,18.40
2018-02-16T07:40:59.303Z,18.10
2018-02-16T07:41:59.226Z,17.40
2018-02-16T07:42:59.142Z,18.40
2018-02-16T07:43:59.047Z,16.70
2018-02-16T07:44:58.973Z,17.70
2018-02-16T07:45:58.891Z,18.30
2018-02-16T07:46:58.808Z,16.30
2018-02-16T07:47:58.727Z,17.10
2018-02-16T07:48:58.638Z,16.20
2018-02-16T07:49:58.565Z,16.70
2018-02-16T07:50:58.482Z,17.20
2018-02-16T07:51:58.390Z,16.30
2018-02-16T07:52:58.461Z,15.80
2018-02-16T07:53:58.234Z,16.70
2018-02-16T07:54:58.197Z,16.60
2018-02-16T07:55:58.065Z,15.50
2018-02-16T07:56:57.979Z,16.00
2018-02-16T07:57:57.905Z,16.10
2018-02-16T07:58:57.820Z,16.10
2018-02-16T07:59:57.737Z,15.10
2018-02-16T08:00:57.666Z,15.70
2018-02-16T08:01:57.566Z,15.50
2018-02-16T08:02:57.486Z,15.10
2018-02-16T08:03:57.404Z,15.20
2018-02-16T08:04:57.317Z,15.00
2018-02-16T08:05:57.238Z,14.50
2018-02-16T08:06:57.168Z,13.80
2018-02-16T08:07:57.088Z,14.30
2018-02-16T08:08:56.989Z,14.70
2018-02-16T08:09:56.921Z,14.60
2018-02-16T08:10:56.824Z,14.80
2018-02-16T08:11:56.754Z,13.80
2018-02-16T08:12:56.666Z,14.20
2018-02-16T08:13:56.593Z,14.30
2018-02-16T08:14:56.507Z,13.90
2018-02-16T08:15:56.416Z,13.50
2018-02-16T08:16:56.350Z,13.80
2018-02-16T08:17:56.259Z,14.00
2018-02-16T08:18:56.166Z,13.40
2018-02-16T08:19:56.094Z,14.10
2018-02-16T08:20:56.011Z,13.40
2018-02-16T08:21:55.919Z,13.20
2018-02-16T08:22:55.847Z,13.10
2018-02-16T08:23:55.752Z,12.40
2018-02-16T08:24:55.692Z,12.40
2018-02-16T08:25:55.598Z,12.80
2018-02-16T08:26:55.516Z,12.70
2018-02-16T08:27:55.433Z,12.30
2018-02-16T08:28:55.375Z,11.40
2018-02-16T08:29:55.267Z,12.00
2018-02-16T08:30:55.195Z,11.90
2018-02-16T08:31:55.108Z,11.80
2018-02-16T08:32:55.018Z,11.50
2018-02-16T08:33:54.943Z,10.80
2018-02-16T08:34:54.852Z,11.50
2018-02-16T08:35:54.785Z,11.00
2018-02-16T08:36:54.700Z,10.60
2018-02-16T08:37:54.658Z,10.50
2018-02-16T08:38:54.548Z,10.40
2018-02-16T08:39:54.471Z,10.90
2018-02-16T08:40:54.371Z,10.20
2018-02-16T08:41:54.302Z,10.30
2018-02-16T08:42:54.221Z,9.70
2018-02-16T08:43:54.149Z,10.20
2018-02-16T08:44:54.061Z,9.60
2018-02-16T08:45:53.969Z,10.00
2018-02-16T08:46:53.897Z,9.10
2018-02-16T08:47:53.807Z,9.00
2018-02-16T08:48:53.732Z,9.50
2018-02-16T08:49:53.648Z,8.60
2018-02-16T08:50:53.569Z,8.50
2018-02-16T08:51:53.502Z,8.10
2018-02-16T08:52:53.424Z,8.00
2018-02-16T08:53:53.343Z,7.80
2018-02-16T08:54:53.249Z,7.60
2018-02-16T08:55:53.168Z,7.20
2018-02-16T08:56:53.096Z,7.50
2018-02-16T08:57:53.010Z,7.20
2018-02-16T08:58:52.967Z,7.80
2018-02-16T08:59:52.850Z,7.60
2018-02-16T09:00:52.774Z,7.20
2018-02-16T09:01:52.694Z,7.40
2018-02-16T09:02:52.627Z,7.20
2018-02-16T09:03:52.539Z,7.20
2018-02-16T09:04:52.473Z,7.90
2018-02-16T09:05:52.371Z,7.80
2018-02-16T09:06:52.300Z,7.60
2018-02-16T09:07:52.223Z,7.40
2018-02-16T09:08:52.133Z,7.70
2018-02-16T09:09:52.062Z,7.30
2018-02-16T09:10:51.984Z,7.00
2018-02-16T09:11:51.902Z,7.40
2018-02-16T09:12:51.824Z,8.00
2018-02-16T09:13:51.745Z,7.40
2018-02-16T09:14:51.676Z,7.70
2018-02-16T09:15:51.582Z,6.90
2018-02-16T09:16:51.498Z,7.30
2018-02-16T09:17:51.428Z,7.90
2018-02-16T09:18:51.351Z,7.50
2018-02-16T09:19:51.269Z,7.00
2018-02-16T09:20:51.203Z,7.40
2018-02-16T09:21:51.121Z,7.10
2018-02-16T09:22:51.025Z,7.10
2018-02-16T09:23:50.946Z,7.00
2018-02-16T09:24:50.875Z,6.50
2018-02-16T09:25:50.791Z,7.30
2018-02-16T09:26:50.720Z,7.50
2018-02-16T09:27:50.630Z,7.00
2018-02-16T09:28:50.549Z,7.60
2018-02-16T09:29:50.476Z,6.90
2018-02-16T09:30:50.391Z,6.40
2018-02-16T09:31:50.312Z,6.60
2018-02-16T09:32:50.228Z,6.70
2018-02-16T09:33:50.151Z,7.10
2018-02-16T09:34:50.075Z,7.20
2018-02-16T09:35:49.988Z,7.00
2018-02-16T09:36:49.918Z,7.20
2018-02-16T09:37:49.847Z,6.40
2018-02-16T09:38:49.750Z,6.70
2018-02-16T09:39:49.675Z,6.50
2018-02-16T09:40:49.596Z,6.50
2018-02-16T09:41:49.513Z,6.50
2018-02-16T09:42:49.438Z,6.50
2018-02-16T09:43:49.355Z,7.50
2018-02-16T09:44:49.277Z,6.10
2018-02-16T09:45:49.203Z,7.20
2018-02-16T09:46:49.120Z,7.10
2018-02-16T09:47:49.046Z,6.80
2018-02-16T09:48:48.953Z,7.00
2018-02-16T09:49:48.877Z,7.10
2018-02-16T09:50:48.799Z,6.90
2018-02-16T09:51:48.721Z,7.00
2018-02-16T09:52:48.644Z,7.10
2018-02-16T09:53:48.553Z,7.10
2018-02-16T09:54:48.480Z,6.80
2018-02-16T09:55:48.392Z,7.30
2018-02-16T09:56:48.313Z,7.30
2018-02-16T09:57:48.243Z,7.60
2018-02-16T09:58:48.150Z,7.60
2018-02-16T09:59:48.102Z,7.30
2018-02-16T10:00:48.010Z,7.40
2018-02-16T10:01:47.952Z,7.00
2018-02-16T10:02:47.857Z,7.20
2018-02-16T10:03:47.768Z,7.20
2018-02-16T10:04:47.679Z,7.90
2018-02-16T10:05:47.607Z,7.70
2018-02-16T10:06:47.541Z,8.30
2018-02-16T10:07:47.436Z,7.80
2018-02-16T10:08:47.359Z,7.60
2018-02-16T10:09:47.275Z,7.70
2018-02-16T10:10:47.206Z,7.50
2018-02-16T10:11:47.119Z,7.20
2018-02-16T10:12:47.104Z,7.20
2018-02-16T10:13:46.955Z,7.70
2018-02-16T10:14:46.897Z,7.60
2018-02-16T10:15:46.804Z,8.20
2018-02-16T10:16:46.705Z,7.60
2018-02-16T10:17:46.625Z,7.80
2018-02-16T10:18:46.556Z,7.80
2018-02-16T10:19:46.477Z,8.10
2018-02-16T10:20:46.412Z,8.60
2018-02-16T10:21:46.310Z,8.30
2018-02-16T10:22:46.233Z,8.20
2018-02-16T10:23:46.155Z,9.10
2018-02-16T10:24:46.088Z,7.90
2018-02-16T10:25:46.005Z,8.40
2018-02-16T10:26:45.914Z,8.30
2018-02-16T10:27:45.831Z,9.00
2018-02-16T10:28:45.758Z,9.40
2018-02-16T10:29:45.674Z,8.50
2018-02-16T10:30:45.604Z,8.20
2018-02-16T10:31:45.512Z,9.00
2018-02-16T10:32:45.434Z,10.20
2018-02-16T10:33:45.537Z,14.90
2018-02-16T10:34:45.269Z,9.70
2018-02-16T10:35:45.217Z,9.00
2018-02-16T10:36:45.103Z,8.80
2018-02-16T10:37:45.046Z,8.20
2018-02-16T10:38:44.960Z,8.70
2018-02-16T10:39:44.873Z,8.30
2018-02-16T10:40:44.809Z,8.80
2018-02-16T10:41:44.732Z,8.90
2018-02-16T10:42:44.634Z,8.60
2018-02-16T10:43:44.556Z,9.20
2018-02-16T10:44:44.479Z,9.30
2018-02-16T10:45:44.399Z,8.30
2018-02-16T10:46:44.329Z,8.70
2018-02-16T10:47:44.247Z,8.90
2018-02-16T10:48:44.158Z,9.20
2018-02-16T10:49:44.083Z,9.50
2018-02-16T10:50:44.014Z,9.80
2018-02-16T10:51:43.918Z,9.50
2018-02-16T10:52:43.850Z,9.40
2018-02-16T10:53:43.787Z,9.40
2018-02-16T10:54:43.709Z,9.70
2018-02-16T10:55:43.618Z,9.90
2018-02-16T10:56:43.537Z,9.90
2018-02-16T10:57:43.442Z,10.40
2018-02-16T10:58:43.383Z,10.10
2018-02-16T10:59:43.292Z,9.70
2018-02-16T11:00:43.213Z,10.40
2018-02-16T11:01:43.137Z,10.40
2018-02-16T11:02:43.060Z,10.90
2018-02-16T11:03:42.985Z,10.30
2018-02-16T11:04:42.928Z,10.20
2018-02-16T11:05:42.821Z,10.10
2018-02-16T11:06:42.738Z,11.30
2018-02-16T11:07:42.660Z,10.80
2018-02-16T11:08:42.579Z,11.00
2018-02-16T11:09:42.510Z,11.10
2018-02-16T11:10:42.432Z,11.20
2018-02-16T11:11:42.340Z,11.20
2018-02-16T11:12:42.270Z,10.90
2018-02-16T11:13:42.203Z,11.10
2018-02-16T11:14:42.107Z,10.80
2018-02-16T11:15:42.039Z,11.40
2018-02-16T11:16:41.954Z,11.40
2018-02-16T11:17:41.871Z,11.50
2018-02-16T11:18:41.789Z,11.10
2018-02-16T11:19:41.709Z,11.50
2018-02-16T11:20:41.620Z,10.70
2018-02-16T11:21:41.548Z,11.60
2018-02-16T11:22:41.471Z,11.20
2018-02-16T11:23:41.388Z,10.50
2018-02-16T11:24:41.313Z,11.90
2018-02-16T11:25:41.244Z,11.40
2018-02-16T11:26:41.161Z,11.40
2018-02-16T11:27:41.076Z,11.80
2018-02-16T11:28:40.990Z,12.50
2018-02-16T11:29:40.911Z,12.00
2018-02-16T11:30:40.832Z,12.50
2018-02-16T11:31:40.770Z,11.30
2018-02-16T11:32:40.679Z,12.00
2018-02-16T11:33:40.596Z,11.90
2018-02-16T11:34:40.546Z,11.80
2018-02-16T11:35:40.436Z,11.50
2018-02-16T11:36:40.360Z,11.40
2018-02-16T11:37:40.289Z,11.40
2018-02-16T11:38:40.196Z,12.70
2018-02-16T11:39:40.115Z,11.80
2018-02-16T11:40:40.038Z,12.00
2018-02-16T11:41:39.958Z,11.40
2018-02-16T11:42:39.893Z,11.90
2018-02-16T11:43:39.801Z,10.70
2018-02-16T11:44:39.724Z,11.10
2018-02-16T11:45:39.654Z,11.50
2018-02-16T11:46:39.561Z,11.40
2018-02-16T11:47:39.491Z,11.60
2018-02-16T11:48:39.419Z,11.80
2018-02-16T11:49:39.324Z,11.00
2018-02-16T11:50:39.251Z,12.10
2018-02-16T11:51:39.158Z,12.30
2018-02-16T11:52:39.084Z,11.20
2018-02-16T11:53:39.004Z,11.60
2018-02-16T11:54:38.927Z,11.80
2018-02-16T11:55:38.842Z,11.70
2018-02-16T11:56:38.768Z,11.90
2018-02-16T11:57:38.690Z,11.70
2018-02-16T11:58:38.620Z,11.30
2018-02-16T11:59:38.524Z,11.70
2018-02-16T12:00:38.436Z,11.30
2018-02-16T12:01:38.377Z,10.80
2018-02-16T12:02:38.291Z,11.60
2018-02-16T12:03:38.207Z,11.40
2018-02-16T12:04:38.131Z,11.30
2018-02-16T12:05:38.053Z,11.40
2018-02-16T12:06:37.968Z,11.00
2018-02-16T12:07:37.893Z,10.90
2018-02-16T12:08:38.016Z,11.10
2018-02-16T12:09:37.746Z,11.40
2018-02-16T12:10:37.656Z,11.00
2018-02-16T12:11:37.584Z,12.00
2018-02-16T12:12:37.505Z,11.40
2018-02-16T12:13:37.417Z,11.50
2018-02-16T12:14:37.343Z,10.50
2018-02-16T12:15:37.264Z,11.20
2018-02-16T12:16:37.192Z,10.90
2018-02-16T12:17:37.112Z,11.40
2018-02-16T12:18:37.026Z,11.90
2018-02-16T12:19:36.992Z,11.10
2018-02-16T12:20:36.875Z,11.30
2018-02-16T12:21:36.791Z,11.20
2018-02-16T12:22:36.732Z,12.00
2018-02-16T12:23:36.639Z,11.40
2018-02-16T12:24:36.555Z,11.00
2018-02-16T12:25:36.498Z,11.20
2018-02-16T12:26:36.421Z,11.50
2018-02-16T12:27:36.322Z,12.30
2018-02-16T12:28:36.243Z,11.60
2018-02-16T12:29:36.168Z,10.80
2018-02-16T12:30:36.095Z,11.00
2018-02-16T12:31:36.004Z,11.80
2018-02-16T12:32:35.942Z,11.60
2018-02-16T12:33:35.846Z,10.90
2018-02-16T12:34:35.771Z,11.00
2018-02-16T12:35:35.705Z,10.70
2018-02-16T12:36:35.636Z,10.40
2018-02-16T12:37:35.540Z,10.80
2018-02-16T12:38:35.458Z,10.90
2018-02-16T12:39:35.367Z,10.00
2018-02-16T12:40:35.326Z,9.70
2018-02-16T12:41:35.253Z,10.30
2018-02-16T12:42:35.142Z,10.30
2018-02-16T12:43:35.071Z,10.10
2018-02-16T12:44:34.973Z,9.50
2018-02-16T12:45:34.892Z,9.80
2018-02-16T12:46:34.822Z,9.40
2018-02-16T12:47:34.744Z,9.50
2018-02-16T12:48:34.671Z,9.70
2018-02-16T12:49:34.573Z,9.70
2018-02-16T12:50:34.494Z,10.10
2018-02-16T12:51:34.422Z,10.30
2018-02-16T12:52:34.346Z,10.00
2018-02-16T12:53:34.253Z,10.00
2018-02-16T12:54:34.174Z,9.90
2018-02-16T12:55:34.093Z,10.30
2018-02-16T12:56:34.022Z,10.10